createdAt,value
2019-04-23T00:02:26.554Z,7.97
2019-04-23T00:04:46.882Z,7.00
2019-04-23T00:07:39.182Z,7.13
2019-04-23T00:09:57.161Z,7.00
2019-04-23T00:12:29.985Z,7.53
2019-04-23T00:15:04.394Z,8.13
2019-04-23T00:17:29.937Z,7.80
2019-04-23T00:19:55.734Z,7.43
2019-04-23T00:22:29.161Z,7.53
2019-04-23T00:25:36.427Z,8.23
2019-04-23T00:27:40.536Z,7.77
2019-04-23T00:30:20.280Z,7.57
2019-04-23T00:32:34.978Z,8.20
2019-04-23T00:40:19.043Z,7.80
2019-04-23T00:42:36.606Z,8.07
2019-04-23T00:45:00.300Z,9.00
2019-04-23T00:50:20.251Z,8.07
2019-04-23T00:52:32.160Z,8.70
2019-04-23T00:57:35.937Z,8.10
2019-04-23T01:00:13.985Z,8.40
2019-04-23T01:02:36.988Z,9.00
2019-04-23T01:05:11.418Z,8.90
2019-04-23T01:07:38.342Z,9.33
2019-04-23T01:15:11.987Z,7.47
2019-04-23T01:20:15.009Z,8.20
2019-04-23T01:22:33.509Z,9.30
2019-04-23T01:25:13.416Z,7.87
2019-04-23T01:28:07.590Z,9.33
2019-04-23T01:30:32.870Z,8.60
2019-04-23T01:33:14.203Z,8.60
2019-04-23T01:35:36.400Z,8.67
2019-04-23T01:38:09.650Z,9.00
2019-04-23T01:40:37.491Z,9.33
2019-04-23T01:43:07.919Z,8.07
2019-04-23T01:45:30.726Z,8.03
2019-04-23T01:48:04.694Z,8.57
2019-04-23T01:50:47.099Z,8.53
2019-04-23T01:53:16.699Z,8.23
2019-04-23T01:55:42.163Z,8.53
2019-04-23T02:00:40.755Z,8.63
2019-04-23T02:03:26.702Z,7.70
2019-04-23T02:05:42.657Z,7.43
2019-04-23T02:13:16.147Z,8.63
2019-04-23T02:15:44.059Z,9.10
2019-04-23T02:18:17.968Z,8.27
2019-04-23T02:20:48.006Z,8.77
2019-04-23T02:23:28.099Z,8.37
2019-04-23T02:28:28.644Z,9.13
2019-04-23T02:36:05.449Z,9.03
2019-04-23T02:38:40.622Z,8.47
2019-04-23T02:43:21.981Z,9.23
2019-04-23T02:48:36.212Z,9.03
2019-04-23T02:50:55.025Z,9.30
2019-04-23T03:03:44.910Z,10.20
2019-04-23T03:06:05.916Z,9.60
2019-04-23T03:08:36.332Z,9.27
2019-04-23T03:11:09.971Z,9.80
2019-04-23T03:16:34.780Z,9.80
2019-04-23T03:24:16.297Z,9.93
2019-04-23T03:35:16.085Z,10.10
2019-04-23T03:36:42.782Z,11.40
2019-04-23T03:38:56.053Z,9.53
2019-04-23T03:43:54.402Z,9.27
2019-04-23T03:48:57.067Z,10.80
2019-04-23T03:51:34.143Z,8.83
2019-04-23T03:54:24.433Z,9.17
2019-04-23T03:56:48.599Z,10.47
2019-04-23T03:59:32.738Z,9.70
2019-04-23T04:01:34.695Z,9.20
2019-04-23T04:09:24.168Z,10.33
2019-04-23T04:11:29.261Z,8.40
2019-04-23T04:16:42.770Z,10.00
2019-04-23T04:19:16.813Z,9.43
2019-04-23T04:26:43.854Z,10.43
2019-04-23T04:29:11.766Z,8.77
2019-04-23T04:31:54.750Z,7.47
2019-04-23T04:34:21.638Z,8.33
2019-04-23T04:36:45.863Z,8.60
2019-04-23T04:39:00.685Z,8.23
2019-04-23T04:41:40.540Z,9.70
2019-04-23T04:49:15.100Z,9.17
2019-04-23T04:51:51.877Z,7.90
2019-04-23T04:59:11.965Z,8.87
2019-04-23T05:01:37.353Z,8.50
2019-04-23T05:06:59.395Z,7.70
2019-04-23T05:09:31.841Z,8.93
2019-04-23T05:14:08.230Z,7.63
2019-04-23T05:16:44.463Z,9.60
2019-04-23T05:19:22.184Z,7.90
2019-04-23T05:21:46.772Z,7.87
2019-04-23T05:24:08.953Z,7.87
2019-04-23T05:26:33.129Z,8.97
2019-04-23T05:31:32.863Z,8.03
2019-04-23T05:34:11.095Z,8.40
2019-04-23T05:36:45.689Z,7.67
2019-04-23T05:39:17.256Z,7.57
2019-04-23T05:41:41.235Z,8.17
2019-04-23T05:44:17.146Z,7.50
2019-04-23T05:46:37.742Z,8.50
2019-04-23T05:49:14.308Z,8.20
2019-04-23T05:54:12.904Z,8.23
2019-04-23T05:56:52.044Z,9.00
2019-04-23T05:59:14.680Z,9.87
2019-04-23T06:09:14.110Z,6.90
2019-04-23T06:19:18.247Z,6.70
2019-04-23T06:21:57.782Z,7.53
2019-04-23T06:24:23.889Z,7.57
2019-04-23T06:26:49.195Z,7.93
2019-04-23T06:29:20.624Z,6.93
2019-04-23T06:34:17.126Z,7.90
2019-04-23T06:36:44.477Z,6.33
2019-04-23T06:39:23.348Z,7.00
2019-04-23T06:41:50.057Z,7.90
2019-04-23T06:49:37.251Z,6.73
2019-04-23T06:54:35.872Z,7.13
2019-04-23T06:57:11.872Z,6.80
2019-04-23T06:59:30.677Z,7.17
2019-04-23T07:04:37.457Z,7.20
2019-04-23T07:07:29.668Z,6.57
2019-04-23T07:09:27.461Z,8.37
2019-04-23T07:12:07.680Z,7.57
2019-04-23T07:14:35.884Z,7.90
2019-04-23T07:17:02.696Z,7.37
2019-04-23T07:19:39.291Z,7.13
2019-04-23T07:22:14.588Z,7.13
2019-04-23T07:24:36.598Z,6.87
2019-04-23T07:27:03.320Z,6.73
2019-04-23T07:29:31.406Z,7.10
2019-04-23T07:32:05.917Z,6.37
2019-04-23T07:34:37.514Z,6.57
2019-04-23T07:37:05.201Z,6.90
2019-04-23T07:40:14.155Z,7.97
2019-04-23T07:42:29.940Z,6.90
2019-04-23T07:45:18.921Z,7.47
2019-04-23T07:48:15.208Z,7.33
2019-04-23T07:50:49.064Z,6.90
2019-04-23T07:53:16.335Z,6.60
2019-04-23T07:58:14.357Z,5.57
2019-04-23T08:03:17.396Z,8.23
2019-04-23T08:08:21.453Z,7.43
2019-04-23T08:11:14.325Z,7.77
2019-04-23T08:13:16.366Z,7.67
2019-04-23T08:15:42.977Z,7.37
2019-04-23T08:18:13.567Z,7.27
2019-04-23T08:20:49.048Z,8.80
2019-04-23T08:23:16.481Z,7.57
2019-04-23T08:26:00.551Z,7.03
2019-04-23T08:28:23.033Z,6.43
2019-04-23T08:30:46.559Z,6.47
2019-04-23T08:33:21.284Z,6.63
2019-04-23T08:35:54.251Z,6.43
2019-04-23T08:40:55.634Z,6.30
2019-04-23T08:46:18.693Z,5.87
2019-04-23T08:48:41.632Z,6.87
2019-04-23T08:51:26.212Z,7.07
2019-04-23T08:53:57.099Z,6.83
2019-04-23T08:56:12.350Z,6.50
2019-04-23T08:58:43.616Z,6.70
2019-04-23T09:01:12.265Z,5.93
2019-04-23T09:03:39.139Z,7.30
2019-04-23T09:06:15.771Z,6.27
2019-04-23T09:08:44.250Z,6.80
2019-04-23T09:11:30.848Z,5.83
2019-04-23T09:13:53.558Z,6.80
2019-04-23T09:16:22.123Z,6.77
2019-04-23T09:19:02.788Z,6.27
2019-04-23T09:21:15.587Z,7.20
2019-04-23T09:23:46.639Z,5.37
2019-04-23T09:26:08.985Z,5.77
2019-04-23T09:28:51.661Z,5.43
2019-04-23T09:32:02.024Z,5.47
2019-04-23T09:34:05.589Z,5.60
2019-04-23T09:36:58.172Z,6.53
2019-04-23T09:39:34.889Z,6.07
2019-04-23T09:42:08.743Z,4.73
2019-04-23T09:47:38.552Z,6.43
2019-04-23T09:50:15.835Z,5.63
2019-04-23T09:52:44.668Z,6.40
2019-04-23T09:55:15.531Z,5.70
2019-04-23T09:57:43.375Z,6.13
2019-04-23T10:00:16.880Z,6.30
2019-04-23T10:02:30.834Z,5.47
2019-04-23T10:04:55.513Z,5.70
2019-04-23T10:07:27.115Z,6.77
2019-04-23T10:09:44.760Z,7.77
2019-04-23T10:12:14.656Z,5.70
2019-04-23T10:14:54.861Z,5.70
2019-04-23T10:17:13.955Z,5.77
2019-04-23T10:19:42.759Z,5.37
2019-04-23T10:22:11.487Z,5.67
2019-04-23T10:24:41.097Z,5.63
2019-04-23T10:27:10.059Z,5.30
2019-04-23T10:29:41.628Z,6.63
2019-04-23T10:32:11.678Z,5.80
2019-04-23T10:34:55.259Z,6.33
2019-04-23T10:37:11.392Z,4.93
2019-04-23T10:39:43.696Z,5.47
2019-04-23T10:42:11.988Z,5.40
2019-04-23T10:44:43.868Z,6.23
2019-04-23T10:48:10.154Z,5.47
2019-04-23T10:53:20.184Z,6.60
2019-04-23T10:55:49.968Z,6.10
2019-04-23T10:58:08.455Z,7.43
2019-04-23T11:00:37.622Z,5.93
2019-04-23T11:03:21.728Z,6.33
2019-04-23T11:08:11.202Z,6.10
2019-04-23T11:10:42.920Z,8.23
2019-04-23T11:13:17.518Z,6.70
2019-04-23T11:18:04.086Z,5.73
2019-04-23T11:20:44.611Z,6.27
2019-04-23T11:23:08.107Z,6.70
2019-04-23T11:25:55.700Z,5.57
2019-04-23T11:28:22.718Z,5.80
2019-04-23T11:30:41.705Z,5.47
2019-04-23T11:33:18.515Z,5.30
2019-04-23T11:36:01.753Z,5.80
2019-04-23T11:38:43.790Z,6.13
2019-04-23T11:40:41.825Z,6.33
2019-04-23T11:43:20.334Z,6.40
2019-04-23T11:53:29.731Z,7.73
2019-04-23T11:56:13.976Z,6.67
2019-04-23T12:01:10.864Z,6.47
2019-04-23T12:03:37.317Z,5.93
2019-04-23T12:06:12.148Z,6.17
2019-04-23T12:08:57.351Z,6.23
2019-04-23T12:14:24.264Z,6.37
2019-04-23T12:17:15.256Z,5.73
2019-04-23T12:22:15.071Z,6.07
2019-04-23T12:34:59.394Z,6.50
2019-04-23T12:37:34.638Z,6.43
2019-04-23T12:40:12.862Z,6.80
2019-04-23T12:47:43.844Z,6.30
2019-04-23T12:50:33.387Z,6.07
2019-04-23T12:52:40.598Z,6.07
2019-04-23T12:57:37.291Z,6.90
2019-04-23T13:00:12.209Z,7.43
2019-04-23T13:05:23.151Z,5.70
2019-04-23T13:07:38.574Z,5.80
2019-04-23T13:10:11.899Z,6.53
2019-04-23T13:12:46.667Z,6.17
2019-04-23T13:15:10.794Z,5.90
2019-04-23T13:20:23.641Z,6.17
2019-04-23T13:25:18.201Z,6.13
2019-04-23T13:27:55.581Z,6.47
2019-04-23T13:30:24.994Z,6.10
2019-04-23T13:32:52.193Z,6.43
2019-04-23T13:35:28.200Z,7.03
2019-04-23T13:37:56.898Z,6.20
2019-04-23T13:40:24.381Z,6.27
2019-04-23T13:42:55.134Z,6.23
2019-04-23T13:45:45.983Z,7.53
2019-04-23T13:47:53.224Z,10.13
2019-04-23T13:50:30.931Z,6.93
2019-04-23T14:00:31.621Z,7.03
2019-04-23T14:02:52.681Z,6.90
2019-04-23T14:05:38.050Z,6.43
2019-04-23T14:08:15.512Z,6.77
2019-04-23T14:15:54.103Z,7.53
2019-04-23T14:21:05.958Z,6.30
2019-04-23T14:25:59.858Z,7.23
2019-04-23T14:28:21.942Z,6.70
2019-04-23T14:30:53.874Z,6.80
2019-04-23T14:35:49.699Z,7.30
2019-04-23T14:38:27.618Z,6.93
2019-04-23T14:43:40.292Z,6.97
2019-04-23T14:46:27.128Z,7.73
2019-04-23T14:51:02.485Z,7.77
2019-04-23T14:53:24.697Z,7.53
2019-04-23T14:58:36.847Z,8.60
2019-04-23T15:01:16.134Z,8.47
2019-04-23T15:03:35.415Z,7.83
2019-04-23T15:06:12.692Z,7.10
2019-04-23T15:08:39.783Z,8.97
2019-04-23T15:11:13.456Z,8.17
2019-04-23T15:13:40.771Z,7.80
2019-04-23T15:16:11.464Z,7.50
2019-04-23T15:18:50.769Z,7.57
2019-04-23T15:21:42.407Z,7.47
2019-04-23T15:23:54.002Z,7.93
2019-04-23T15:27:02.280Z,7.50
2019-04-23T15:28:18.649Z,7.63
2019-04-23T15:31:20.155Z,7.70
2019-04-23T15:33:56.554Z,7.03
2019-04-23T15:46:47.450Z,7.60
2019-04-23T15:49:18.210Z,7.93
2019-04-23T16:01:34.607Z,9.40
2019-04-23T16:03:41.911Z,7.63
2019-04-23T16:06:12.735Z,8.77
2019-04-23T16:09:06.130Z,7.93
2019-04-23T16:19:20.677Z,8.40
2019-04-23T16:22:04.664Z,9.17
2019-04-23T16:24:19.384Z,8.60
2019-04-23T16:31:46.872Z,8.83
2019-04-23T16:34:27.277Z,8.20
2019-04-23T16:36:55.511Z,8.90
2019-04-23T16:39:22.261Z,9.93
2019-04-23T16:41:54.795Z,8.47
2019-04-23T16:44:36.996Z,9.47
2019-04-23T16:46:56.159Z,10.40
2019-04-23T16:49:22.043Z,9.20
2019-04-23T16:51:47.538Z,9.40
2019-04-23T16:54:36.832Z,9.47
2019-04-23T16:57:17.902Z,11.57
2019-04-23T16:59:24.211Z,9.23
2019-04-23T17:02:03.556Z,10.40
2019-04-23T17:04:24.842Z,9.20
2019-04-23T17:06:57.735Z,8.33
2019-04-23T17:09:26.338Z,10.20
2019-04-23T17:12:05.987Z,9.70
2019-04-23T17:16:51.603Z,9.43
2019-04-23T17:21:59.966Z,11.30
2019-04-23T17:27:07.140Z,10.50
2019-04-23T17:29:28.680Z,12.53
2019-04-23T17:32:07.113Z,11.77
2019-04-23T17:34:47.535Z,10.30
2019-04-23T17:37:19.928Z,9.90
2019-04-23T17:40:08.683Z,9.80
2019-04-23T17:42:39.809Z,10.03
2019-04-23T17:52:51.095Z,10.63
2019-04-23T17:55:15.027Z,9.90
2019-04-23T17:57:44.401Z,11.30
2019-04-23T18:02:55.623Z,11.47
2019-04-23T18:05:27.420Z,11.93
2019-04-23T18:08:01.736Z,10.80
2019-04-23T18:12:53.799Z,10.33
2019-04-23T18:15:24.505Z,9.73
2019-04-23T18:17:54.763Z,9.83
2019-04-23T18:23:04.201Z,10.87
2019-04-23T18:25:26.718Z,11.27
2019-04-23T18:30:28.809Z,10.77
2019-04-23T18:33:31.903Z,10.47
2019-04-23T18:35:27.955Z,11.93
2019-04-23T18:37:56.405Z,12.80
2019-04-23T18:40:29.892Z,13.67
2019-04-23T18:43:04.501Z,10.90
2019-04-23T18:45:38.689Z,11.17
2019-04-23T18:48:34.352Z,12.13
2019-04-23T18:50:58.507Z,12.70
2019-04-23T18:53:26.775Z,15.10
2019-04-23T18:58:21.173Z,10.47
2019-04-23T19:01:01.974Z,11.33
2019-04-23T19:03:30.285Z,12.73
2019-04-23T19:06:10.668Z,11.93
2019-04-23T19:08:53.715Z,12.33
2019-04-23T19:11:23.091Z,9.73
2019-04-23T19:13:50.868Z,10.10
2019-04-23T19:16:25.332Z,10.13
2019-04-23T19:18:56.744Z,10.63
2019-04-23T19:21:49.005Z,12.00
2019-04-23T19:23:51.038Z,10.60
2019-04-23T19:26:47.268Z,10.37
2019-04-23T19:29:14.031Z,11.57
2019-04-23T19:31:34.475Z,10.63
2019-04-23T19:34:34.040Z,8.90
2019-04-23T19:36:52.540Z,11.47
2019-04-23T19:39:11.533Z,9.50
2019-04-23T19:41:49.825Z,10.93
2019-04-23T19:44:08.501Z,10.00
2019-04-23T19:49:13.771Z,9.53
2019-04-23T19:51:44.612Z,9.63
2019-04-23T19:54:17.129Z,9.90
2019-04-23T19:59:18.467Z,9.07
2019-04-23T20:01:44.694Z,7.70
2019-04-23T20:04:04.148Z,9.20
2019-04-23T20:09:28.487Z,6.83
2019-04-23T20:11:50.582Z,5.20
2019-04-23T20:14:09.657Z,5.27
2019-04-23T20:19:25.454Z,6.07
2019-04-23T20:21:51.060Z,10.13
2019-04-23T20:27:01.194Z,5.20
2019-04-23T20:34:51.818Z,8.77
2019-04-23T20:36:52.629Z,4.40
2019-04-23T20:39:34.923Z,5.00
2019-04-23T20:42:11.942Z,5.53
2019-04-23T20:44:39.418Z,5.57
2019-04-23T20:47:08.559Z,5.53
2019-04-23T20:54:42.386Z,5.70
2019-04-23T20:57:24.375Z,4.70
2019-04-23T20:59:57.202Z,5.43
2019-04-23T21:02:43.172Z,4.60
2019-04-23T21:05:11.861Z,5.20
2019-04-23T21:07:35.956Z,4.73
2019-04-23T21:10:08.978Z,5.33
2019-04-23T21:12:42.803Z,4.53
2019-04-23T21:15:05.306Z,4.43
2019-04-23T21:17:40.651Z,4.77
2019-04-23T21:22:31.532Z,4.83
2019-04-23T21:24:54.646Z,4.83
2019-04-23T21:27:43.080Z,3.70
2019-04-23T21:32:44.192Z,4.00
2019-04-23T21:37:47.965Z,4.73
2019-04-23T21:42:59.009Z,4.07
2019-04-23T21:45:25.850Z,4.43
2019-04-23T21:48:02.384Z,3.97
2019-04-23T21:50:28.430Z,4.10
2019-04-23T21:52:54.135Z,3.70
2019-04-23T21:55:36.275Z,4.17
2019-04-23T21:57:59.645Z,4.00
2019-04-23T22:00:24.289Z,4.77
2019-04-23T22:03:01.219Z,4.80
2019-04-23T22:05:42.500Z,4.20
2019-04-23T22:07:58.172Z,4.53
2019-04-23T22:10:25.693Z,3.77
2019-04-23T22:13:09.667Z,3.67
2019-04-23T22:15:34.968Z,3.83
2019-04-23T22:17:49.948Z,4.83
2019-04-23T22:20:33.184Z,4.13
2019-04-23T22:23:10.629Z,3.93
2019-04-23T22:25:32.158Z,4.57
2019-04-23T22:27:58.167Z,4.03
2019-04-23T22:30:31.584Z,4.17
2019-04-23T22:33:07.199Z,3.87
2019-04-23T22:35:30.112Z,3.60
2019-04-23T22:38:07.009Z,4.27
2019-04-23T22:40:25.369Z,4.03
2019-04-23T22:45:26.460Z,3.87
2019-04-23T22:50:39.752Z,4.23
2019-04-23T22:53:02.664Z,4.27
2019-04-23T22:55:38.899Z,3.57
2019-04-23T22:58:05.097Z,3.83
2019-04-23T23:00:27.355Z,3.87
2019-04-23T23:03:27.160Z,3.70
2019-04-23T23:06:09.200Z,4.73
2019-04-23T23:10:53.987Z,4.27
2019-04-23T23:13:20.748Z,3.33
2019-04-23T23:15:59.599Z,3.97
2019-04-23T23:18:17.872Z,3.83
2019-04-23T23:20:52.397Z,4.77
2019-04-23T23:23:17.725Z,4.00
2019-04-23T23:28:26.896Z,4.00
2019-04-23T23:35:54.156Z,3.80
2019-04-23T23:38:27.112Z,3.50
2019-04-23T23:40:58.728Z,4.00
2019-04-23T23:46:03.303Z,3.30
2019-04-23T23:48:20.132Z,3.50
2019-04-23T23:51:00.712Z,3.60
2019-04-23T23:53:31.421Z,3.57
2019-04-23T23:58:28.900Z,3.73
